createdAt,value
2022-07-29T00:01:48.340Z,62.71
2022-07-29T00:04:18.051Z,62.46
2022-07-29T00:06:48.192Z,62.36
2022-07-29T00:09:18.564Z,62.72
2022-07-29T00:11:47.539Z,61.88
2022-07-29T00:14:16.915Z,62.70
2022-07-29T00:16:46.211Z,64.19
2022-07-29T00:19:15.229Z,64.49
2022-07-29T00:21:44.217Z,64.11
2022-07-29T00:24:13.623Z,62.54
2022-07-29T00:26:44.167Z,63.16
2022-07-29T00:32:02.426Z,64.62
2022-07-29T00:34:48.847Z,64.11
2022-07-29T00:37:17.940Z,64.47
2022-07-29T00:39:46.812Z,64.06
2022-07-29T00:42:17.429Z,62.68
2022-07-29T00:44:46.664Z,62.86
2022-07-29T00:47:15.732Z,62.74
2022-07-29T00:49:45.221Z,63.37
2022-07-29T00:52:17.205Z,63.08
2022-07-29T00:54:46.904Z,62.90
2022-07-29T00:57:17.390Z,63.49
2022-07-29T00:59:46.427Z,62.95
2022-07-29T01:02:15.689Z,63.32
2022-07-29T01:04:47.908Z,62.10
2022-07-29T01:07:18.655Z,63.23
2022-07-29T01:09:49.358Z,63.58
2022-07-29T01:12:25.059Z,63.99
2022-07-29T01:14:56.164Z,63.81
2022-07-29T01:17:32.770Z,63.85
2022-07-29T01:20:11.495Z,64.07
2022-07-29T01:23:41.673Z,64.43
2022-07-29T01:26:49.051Z,64.04
2022-07-29T01:29:35.994Z,64.09
2022-07-29T01:32:28.051Z,62.55
2022-07-29T01:35:06.617Z,63.17
2022-07-29T01:37:45.360Z,63.43
2022-07-29T01:40:24.269Z,62.98
2022-07-29T01:42:58.352Z,62.82
2022-07-29T01:45:40.824Z,62.45
2022-07-29T01:48:21.996Z,61.51
2022-07-29T01:51:00.686Z,62.87
2022-07-29T01:53:38.372Z,63.43
2022-07-29T01:56:12.324Z,62.97
2022-07-29T01:58:45.418Z,62.31
2022-07-29T02:01:18.323Z,61.98
2022-07-29T02:03:50.158Z,62.35
2022-07-29T02:06:25.436Z,62.17
2022-07-29T02:08:55.841Z,61.75
2022-07-29T02:11:25.003Z,62.19
2022-07-29T02:13:59.194Z,62.00
2022-07-29T02:16:34.102Z,61.59
2022-07-29T02:19:06.710Z,61.73
2022-07-29T02:21:38.133Z,61.25
2022-07-29T02:24:09.293Z,61.69
2022-07-29T02:26:41.644Z,61.09
2022-07-29T02:29:14.046Z,62.73
2022-07-29T02:31:48.045Z,61.65
2022-07-29T02:34:20.269Z,61.80
2022-07-29T02:36:50.610Z,61.58
2022-07-29T02:39:21.200Z,62.26
2022-07-29T02:41:54.431Z,62.58
2022-07-29T02:44:32.597Z,62.55
2022-07-29T02:47:15.781Z,62.85
2022-07-29T02:49:57.184Z,62.75
2022-07-29T02:52:33.878Z,62.40
2022-07-29T02:55:12.205Z,62.55
2022-07-29T02:57:53.827Z,62.39
2022-07-29T03:00:29.729Z,62.67
2022-07-29T03:03:06.193Z,62.99
2022-07-29T03:05:36.310Z,62.55
2022-07-29T03:08:12.600Z,62.21
2022-07-29T03:10:46.675Z,64.02
2022-07-29T03:13:17.701Z,63.59
2022-07-29T03:15:48.140Z,63.98
2022-07-29T03:18:19.150Z,64.36
2022-07-29T03:20:48.242Z,64.23
2022-07-29T03:23:22.543Z,65.21
2022-07-29T03:25:52.746Z,65.01
2022-07-29T03:28:22.120Z,65.47
2022-07-29T03:30:51.890Z,64.90
2022-07-29T03:33:22.196Z,66.47
2022-07-29T03:35:51.189Z,66.92
2022-07-29T03:38:20.723Z,66.98
2022-07-29T03:40:56.245Z,68.61
2022-07-29T03:43:27.752Z,67.12
2022-07-29T03:45:59.157Z,67.41
2022-07-29T03:48:34.969Z,68.33
2022-07-29T03:51:04.101Z,69.14
2022-07-29T03:53:33.546Z,69.99
2022-07-29T03:56:05.110Z,70.70
2022-07-29T03:58:35.494Z,70.97
2022-07-29T04:01:04.899Z,71.61
2022-07-29T04:03:37.069Z,72.37
2022-07-29T04:06:08.677Z,70.12
2022-07-29T04:08:37.692Z,70.12
2022-07-29T04:11:07.904Z,72.04
2022-07-29T04:13:39.551Z,71.40
2022-07-29T04:16:08.776Z,73.80
2022-07-29T04:18:38.962Z,74.76
2022-07-29T04:21:07.853Z,76.63
2022-07-29T04:23:36.802Z,75.36
2022-07-29T04:26:22.982Z,77.10
2022-07-29T04:28:51.789Z,75.52
2022-07-29T04:31:25.527Z,78.50
2022-07-29T04:33:56.163Z,80.62
2022-07-29T04:36:28.526Z,78.01
2022-07-29T04:38:58.818Z,80.81
2022-07-29T04:41:33.260Z,79.52
2022-07-29T04:44:12.226Z,80.57
2022-07-29T04:46:41.656Z,78.57
2022-07-29T04:49:12.031Z,80.38
2022-07-29T04:51:40.960Z,80.95
2022-07-29T04:54:10.040Z,79.23
2022-07-29T04:56:39.052Z,79.71
2022-07-29T04:59:08.016Z,77.33
2022-07-29T05:01:37.114Z,77.49
2022-07-29T05:04:06.249Z,78.72
2022-07-29T05:06:36.712Z,80.30
2022-07-29T05:09:05.918Z,81.20
2022-07-29T05:11:34.797Z,79.73
2022-07-29T05:14:03.848Z,79.28
2022-07-29T05:16:32.795Z,79.13
2022-07-29T05:19:01.869Z,80.28
2022-07-29T05:21:30.850Z,81.89
2022-07-29T05:24:01.329Z,79.11
2022-07-29T05:26:30.356Z,82.91
2022-07-29T05:28:59.211Z,85.45
2022-07-29T05:31:28.368Z,87.75
2022-07-29T05:33:57.385Z,90.24
2022-07-29T05:36:26.233Z,83.63
2022-07-29T05:38:55.286Z,89.16
2022-07-29T05:41:26.589Z,86.60
2022-07-29T05:43:55.608Z,83.73
2022-07-29T05:46:24.552Z,78.68
2022-07-29T05:48:53.576Z,77.66
2022-07-29T05:51:22.774Z,78.72
2022-07-29T05:53:51.757Z,77.99
2022-07-29T05:56:20.694Z,77.75
2022-07-29T05:58:51.045Z,75.80
2022-07-29T06:01:20.912Z,79.21
2022-07-29T06:03:49.979Z,77.60
2022-07-29T06:06:20.076Z,75.70
2022-07-29T06:08:49.094Z,74.57
2022-07-29T06:11:18.106Z,74.46
2022-07-29T06:13:47.524Z,74.65
2022-07-29T06:16:29.811Z,71.27
2022-07-29T06:18:59.337Z,69.37
2022-07-29T06:21:28.355Z,70.03
2022-07-29T06:23:57.670Z,68.30
2022-07-29T06:26:30.274Z,66.32
2022-07-29T06:29:00.437Z,67.35
2022-07-29T06:31:30.769Z,67.77
2022-07-29T06:33:59.721Z,66.19
2022-07-29T06:36:29.698Z,67.14
2022-07-29T06:38:59.000Z,66.20
2022-07-29T06:41:28.281Z,65.42
2022-07-29T06:43:57.213Z,66.34
2022-07-29T06:46:26.210Z,65.23
2022-07-29T06:48:57.748Z,63.35
2022-07-29T06:51:28.444Z,63.10
2022-07-29T06:56:38.354Z,61.42
2022-07-29T06:59:11.856Z,59.91
2022-07-29T07:01:43.697Z,61.21
2022-07-29T07:04:15.246Z,60.54
2022-07-29T07:06:44.975Z,59.32
2022-07-29T07:09:13.951Z,57.29
2022-07-29T07:11:42.877Z,59.18
2022-07-29T07:14:11.809Z,56.67
2022-07-29T07:16:40.764Z,55.90
2022-07-29T07:19:09.758Z,54.59
2022-07-29T07:21:40.108Z,56.12
2022-07-29T07:24:09.557Z,52.40
2022-07-29T07:26:40.377Z,54.49
2022-07-29T07:29:09.277Z,53.22
2022-07-29T07:31:39.667Z,54.42
2022-07-29T07:34:08.555Z,51.27
2022-07-29T07:36:38.900Z,52.55
2022-07-29T07:39:07.993Z,52.43
2022-07-29T07:41:37.131Z,50.59
2022-07-29T07:44:07.021Z,52.16
2022-07-29T07:46:35.922Z,50.59
2022-07-29T07:49:07.414Z,51.69
2022-07-29T07:51:36.374Z,49.59
2022-07-29T07:54:06.869Z,50.04
2022-07-29T07:56:36.206Z,49.20
2022-07-29T07:59:05.326Z,49.28
2022-07-29T08:01:47.830Z,48.29
2022-07-29T08:04:27.511Z,48.31
2022-07-29T08:06:57.826Z,49.07
2022-07-29T08:09:30.776Z,49.56
2022-07-29T08:12:03.337Z,48.45
2022-07-29T08:14:32.521Z,49.80
2022-07-29T08:17:02.409Z,50.48
2022-07-29T08:19:31.405Z,49.10
2022-07-29T08:22:00.392Z,48.48
2022-07-29T08:24:48.189Z,47.93
2022-07-29T08:27:41.791Z,48.03
2022-07-29T08:30:07.614Z,46.32
2022-07-29T08:32:53.238Z,46.77
2022-07-29T08:35:24.127Z,46.54
2022-07-29T08:37:53.427Z,46.18
2022-07-29T08:40:30.775Z,44.89
2022-07-29T08:43:08.379Z,45.31
2022-07-29T08:45:47.448Z,44.58
2022-07-29T08:48:20.031Z,43.37
2022-07-29T08:50:54.426Z,43.49
2022-07-29T08:53:27.383Z,42.49
2022-07-29T08:55:59.571Z,40.59
2022-07-29T08:58:36.822Z,40.63
2022-07-29T09:01:12.222Z,42.43
2022-07-29T09:03:43.510Z,40.98
2022-07-29T09:06:15.850Z,39.34
2022-07-29T09:08:45.794Z,39.90
2022-07-29T09:11:16.858Z,38.90
2022-07-29T09:13:45.950Z,41.69
2022-07-29T09:16:31.673Z,39.99
2022-07-29T09:19:26.826Z,40.73
2022-07-29T09:22:02.967Z,39.35
2022-07-29T09:24:43.236Z,38.48
2022-07-29T09:27:23.672Z,39.86
2022-07-29T09:30:01.319Z,38.42
2022-07-29T09:32:30.901Z,36.83
2022-07-29T09:35:21.222Z,38.96
2022-07-29T09:37:51.096Z,39.30
2022-07-29T09:40:21.924Z,37.84
2022-07-29T09:42:53.928Z,37.46
2022-07-29T09:45:31.360Z,38.19
2022-07-29T09:48:03.927Z,36.12
2022-07-29T09:50:40.958Z,36.77
2022-07-29T09:53:11.394Z,36.03
2022-07-29T09:55:51.866Z,38.46
2022-07-29T09:58:24.448Z,36.90
2022-07-29T10:00:55.775Z,37.09
2022-07-29T10:03:26.930Z,36.95
2022-07-29T10:06:10.794Z,37.74
2022-07-29T10:08:40.552Z,39.18
2022-07-29T10:11:15.840Z,37.31
2022-07-29T10:13:48.823Z,35.19
2022-07-29T10:16:19.060Z,35.93
2022-07-29T10:18:48.293Z,37.99
2022-07-29T10:21:35.600Z,37.28
2022-07-29T10:24:14.790Z,35.88
2022-07-29T10:26:47.062Z,37.44
2022-07-29T10:29:17.307Z,38.83
2022-07-29T10:31:59.745Z,38.15
2022-07-29T10:34:48.747Z,38.68
2022-07-29T10:37:35.382Z,38.77
2022-07-29T10:40:37.534Z,36.91
2022-07-29T10:43:22.610Z,36.78
2022-07-29T10:45:59.194Z,36.11
2022-07-29T10:48:28.893Z,37.17
2022-07-29T10:51:01.516Z,36.98
2022-07-29T10:53:51.046Z,36.10
2022-07-29T10:56:28.227Z,36.46
2022-07-29T10:59:32.402Z,37.15
2022-07-29T11:02:46.764Z,37.07
2022-07-29T11:05:20.191Z,35.71
2022-07-29T11:08:28.208Z,36.02
2022-07-29T11:11:33.100Z,35.48
2022-07-29T11:14:04.367Z,34.72
2022-07-29T11:17:06.073Z,34.67
2022-07-29T11:19:44.781Z,33.37
2022-07-29T11:22:34.844Z,34.13
2022-07-29T11:25:17.895Z,33.66
2022-07-29T11:27:47.503Z,32.50
2022-07-29T11:30:17.575Z,32.18
2022-07-29T11:32:48.621Z,33.42
2022-07-29T11:35:37.230Z,32.53
2022-07-29T11:38:28.352Z,33.78
2022-07-29T11:41:25.183Z,33.26
2022-07-29T11:43:55.919Z,32.74
2022-07-29T11:46:46.183Z,33.34
2022-07-29T11:49:21.872Z,30.73
2022-07-29T11:51:55.676Z,31.00
2022-07-29T11:54:28.174Z,31.12
2022-07-29T11:56:57.457Z,30.75
2022-07-29T11:59:33.121Z,31.70
2022-07-29T12:02:33.355Z,30.54
2022-07-29T12:04:53.960Z,31.06
2022-07-29T12:07:34.830Z,30.05
2022-07-29T12:10:06.309Z,31.03
2022-07-29T12:12:35.919Z,31.23
2022-07-29T12:15:18.365Z,31.58
2022-07-29T12:17:50.258Z,30.88
2022-07-29T12:20:26.781Z,31.30
2022-07-29T12:22:58.797Z,30.32
2022-07-29T12:25:35.193Z,30.37
2022-07-29T12:28:06.643Z,30.63
2022-07-29T12:30:42.084Z,27.99
2022-07-29T12:33:20.371Z,29.76
2022-07-29T12:36:06.232Z,29.74
2022-07-29T12:38:39.712Z,31.10
2022-07-29T12:41:09.493Z,30.44
2022-07-29T12:43:38.633Z,32.48
2022-07-29T12:46:15.630Z,33.27
2022-07-29T12:48:47.344Z,32.42
2022-07-29T12:51:17.825Z,32.70
2022-07-29T12:54:07.843Z,32.66
2022-07-29T12:56:45.149Z,31.87
2022-07-29T12:59:16.410Z,31.54
2022-07-29T13:01:47.978Z,31.72
2022-07-29T13:04:27.990Z,31.71
2022-07-29T13:07:06.456Z,31.15
2022-07-29T13:09:44.272Z,30.55
2022-07-29T13:12:15.077Z,29.80
2022-07-29T13:14:46.340Z,30.47
2022-07-29T13:17:17.010Z,30.84
2022-07-29T13:19:48.299Z,30.49
2022-07-29T13:22:20.387Z,29.80
2022-07-29T13:24:53.724Z,30.76
2022-07-29T13:27:25.321Z,31.08
2022-07-29T13:29:57.499Z,30.89
2022-07-29T13:32:28.541Z,30.17
2022-07-29T13:34:58.976Z,30.72
2022-07-29T13:37:30.689Z,31.20
2022-07-29T13:40:01.424Z,31.06
2022-07-29T13:42:30.725Z,32.29
2022-07-29T13:45:00.230Z,32.78
2022-07-29T13:47:32.206Z,32.25
2022-07-29T13:50:02.598Z,32.67
2022-07-29T13:52:35.479Z,35.30
2022-07-29T13:55:07.221Z,32.84
2022-07-29T13:57:36.469Z,33.53
2022-07-29T14:00:06.668Z,33.74
2022-07-29T14:02:35.828Z,35.76
2022-07-29T14:05:08.311Z,37.40
2022-07-29T14:07:38.046Z,36.86
2022-07-29T14:10:09.444Z,35.20
2022-07-29T14:12:38.411Z,35.55
2022-07-29T14:15:08.583Z,37.34
2022-07-29T14:17:37.498Z,37.65
2022-07-29T14:20:08.042Z,39.78
2022-07-29T14:22:41.825Z,39.42
2022-07-29T14:25:14.885Z,40.73
2022-07-29T14:27:45.321Z,39.96
2022-07-29T14:30:15.443Z,40.37
2022-07-29T14:32:44.341Z,40.76
2022-07-29T14:35:13.377Z,43.52
2022-07-29T14:37:42.319Z,45.46
2022-07-29T14:40:13.555Z,46.37
2022-07-29T14:42:42.664Z,46.11
2022-07-29T14:45:12.523Z,47.52
2022-07-29T14:47:41.588Z,48.27
2022-07-29T14:50:11.994Z,50.13
2022-07-29T14:52:40.965Z,52.89
2022-07-29T14:55:19.899Z,54.25
2022-07-29T14:57:50.892Z,56.88
2022-07-29T15:00:21.626Z,58.91
2022-07-29T15:03:02.040Z,60.65
2022-07-29T15:05:32.032Z,62.41
2022-07-29T15:08:01.515Z,63.60
2022-07-29T15:10:32.082Z,65.95
2022-07-29T15:13:01.072Z,65.23
2022-07-29T15:15:30.479Z,64.85
2022-07-29T15:17:59.426Z,65.96
2022-07-29T15:20:28.621Z,69.19
2022-07-29T15:22:58.178Z,72.47
2022-07-29T15:25:28.203Z,72.75
2022-07-29T15:28:01.742Z,74.24
2022-07-29T15:30:34.391Z,76.70
2022-07-29T15:33:09.074Z,77.45
2022-07-29T15:35:40.505Z,79.06
2022-07-29T15:38:10.447Z,77.44
2022-07-29T15:40:42.130Z,80.49
2022-07-29T15:43:12.706Z,80.37
2022-07-29T15:46:05.295Z,81.39
2022-07-29T15:48:34.407Z,80.42
2022-07-29T15:51:03.290Z,80.96
2022-07-29T15:53:32.497Z,84.20
2022-07-29T15:56:04.519Z,78.27
2022-07-29T15:58:34.765Z,85.82
2022-07-29T16:01:03.841Z,89.22
2022-07-29T16:03:33.500Z,88.21
2022-07-29T16:06:02.893Z,91.74
2022-07-29T16:08:32.125Z,88.17
2022-07-29T16:11:01.125Z,92.23
2022-07-29T16:13:30.335Z,94.39
2022-07-29T16:16:01.984Z,96.17
2022-07-29T16:18:32.370Z,95.80
2022-07-29T16:21:01.762Z,95.50
2022-07-29T16:23:30.619Z,98.25
2022-07-29T16:26:01.095Z,98.51
2022-07-29T16:28:31.387Z,100.00
2022-07-29T16:31:01.766Z,100.00
2022-07-29T16:33:54.220Z,100.00
2022-07-29T16:36:21.510Z,100.00
2022-07-29T16:38:51.011Z,100.00
2022-07-29T16:41:20.085Z,100.00
2022-07-29T16:43:53.354Z,100.00
2022-07-29T16:46:24.299Z,100.00
2022-07-29T16:48:55.769Z,100.00
2022-07-29T16:51:26.001Z,100.00
2022-07-29T16:53:54.912Z,100.00
2022-07-29T16:56:24.892Z,100.00
2022-07-29T16:58:54.245Z,100.00
2022-07-29T17:01:26.899Z,100.00
2022-07-29T17:04:10.462Z,100.00
2022-07-29T17:06:41.350Z,100.00
2022-07-29T17:09:14.927Z,100.00
2022-07-29T17:11:53.111Z,100.00
2022-07-29T17:14:41.373Z,100.00
2022-07-29T17:17:39.329Z,100.00
2022-07-29T17:20:17.592Z,100.00
2022-07-29T17:22:46.875Z,100.00
2022-07-29T17:25:20.335Z,100.00
2022-07-29T17:27:50.759Z,100.00
2022-07-29T17:30:20.265Z,100.00
2022-07-29T17:32:54.788Z,100.00
2022-07-29T17:35:42.448Z,100.00
2022-07-29T17:38:15.329Z,100.00
2022-07-29T17:40:56.910Z,100.00
2022-07-29T17:43:31.185Z,100.00
2022-07-29T17:46:03.805Z,100.00
2022-07-29T17:48:41.392Z,100.00
2022-07-29T17:51:20.811Z,100.00
2022-07-29T17:53:54.878Z,100.00
2022-07-29T17:56:29.703Z,100.00
2022-07-29T17:59:12.068Z,100.00
2022-07-29T18:01:41.466Z,100.00
2022-07-29T18:04:12.427Z,100.00
2022-07-29T18:06:41.455Z,100.00
2022-07-29T18:09:10.728Z,100.00
2022-07-29T18:11:39.596Z,100.00
2022-07-29T18:14:13.751Z,100.00
2022-07-29T18:16:53.284Z,100.00
2022-07-29T18:19:37.339Z,100.00
2022-07-29T18:22:07.434Z,100.00
2022-07-29T18:24:42.717Z,100.00
2022-07-29T18:27:24.460Z,100.00
2022-07-29T18:30:07.211Z,100.00
2022-07-29T18:32:37.858Z,100.00
2022-07-29T18:35:09.455Z,100.00
2022-07-29T18:38:00.814Z,100.00
2022-07-29T18:40:28.177Z,100.00
2022-07-29T18:42:58.832Z,100.00
2022-07-29T18:45:28.254Z,100.00
2022-07-29T18:48:04.653Z,100.00
2022-07-29T18:50:35.202Z,100.00
2022-07-29T18:53:05.747Z,100.00
2022-07-29T18:55:34.693Z,100.00
2022-07-29T18:58:03.735Z,100.00
2022-07-29T19:00:35.261Z,100.00
2022-07-29T19:03:04.982Z,100.00
2022-07-29T19:05:38.061Z,100.00
2022-07-29T19:08:07.669Z,100.00
2022-07-29T19:10:46.645Z,100.00
2022-07-29T19:13:16.167Z,100.00
2022-07-29T19:15:47.675Z,100.00
2022-07-29T19:18:16.912Z,100.00
2022-07-29T19:20:47.329Z,100.00
2022-07-29T19:23:17.247Z,100.00
2022-07-29T19:25:53.726Z,100.00
2022-07-29T19:28:49.758Z,100.00
2022-07-29T19:32:01.037Z,100.00
2022-07-29T19:42:48.149Z,100.00
2022-07-29T19:45:17.123Z,100.00
2022-07-29T19:47:47.868Z,100.00
2022-07-29T19:50:17.523Z,100.00
2022-07-29T19:52:47.585Z,100.00
2022-07-29T19:55:18.772Z,100.00
2022-07-29T19:57:48.608Z,100.00
2022-07-29T20:00:21.098Z,100.00
2022-07-29T20:02:50.650Z,100.00
2022-07-29T20:05:19.765Z,100.00
2022-07-29T20:07:51.287Z,100.00
2022-07-29T20:10:21.914Z,100.00
2022-07-29T20:12:51.267Z,100.00
2022-07-29T20:15:22.827Z,100.00
2022-07-29T20:17:57.385Z,100.00
2022-07-29T20:20:29.813Z,100.00
2022-07-29T20:22:59.238Z,100.00
2022-07-29T20:25:33.292Z,100.00
2022-07-29T20:28:03.363Z,100.00
2022-07-29T20:30:32.746Z,100.00
2022-07-29T20:33:01.835Z,100.00
2022-07-29T20:35:30.837Z,100.00
2022-07-29T20:38:00.424Z,100.00
2022-07-29T20:40:30.915Z,100.00
2022-07-29T20:42:59.938Z,100.00
2022-07-29T20:45:30.779Z,100.00
2022-07-29T20:48:00.031Z,100.00
2022-07-29T20:50:29.342Z,100.00
2022-07-29T20:52:58.368Z,100.00
2022-07-29T20:55:27.414Z,100.00
2022-07-29T20:58:02.380Z,100.00
2022-07-29T21:00:31.310Z,100.00
2022-07-29T21:03:01.250Z,100.00
2022-07-29T21:05:30.163Z,100.00
2022-07-29T21:07:59.587Z,100.00
2022-07-29T21:10:29.411Z,100.00
2022-07-29T21:12:59.604Z,100.00
2022-07-29T21:15:29.784Z,100.00
2022-07-29T21:18:02.875Z,100.00
2022-07-29T21:20:32.150Z,100.00
2022-07-29T21:23:02.958Z,100.00
2022-07-29T21:25:32.158Z,100.00
2022-07-29T21:28:19.990Z,100.00
2022-07-29T21:30:48.918Z,100.00
2022-07-29T21:33:17.859Z,100.00
2022-07-29T21:36:15.067Z,100.00
2022-07-29T21:38:36.575Z,100.00
2022-07-29T21:41:07.233Z,100.00
2022-07-29T21:43:37.608Z,100.00
2022-07-29T21:46:11.204Z,100.00
2022-07-29T21:48:44.382Z,100.00
2022-07-29T21:51:13.762Z,100.00
2022-07-29T21:53:42.835Z,100.00
2022-07-29T21:56:14.580Z,100.00
2022-07-29T21:58:45.814Z,100.00
2022-07-29T22:01:14.969Z,100.00
2022-07-29T22:03:44.133Z,100.00
2022-07-29T22:06:17.305Z,100.00
2022-07-29T22:08:48.086Z,100.00
2022-07-29T22:11:17.161Z,100.00
2022-07-29T22:13:50.521Z,100.00
2022-07-29T22:16:19.586Z,100.00
2022-07-29T22:18:48.877Z,100.00
2022-07-29T22:21:18.708Z,100.00
2022-07-29T22:23:47.757Z,100.00
2022-07-29T22:26:16.995Z,100.00
2022-07-29T22:28:46.308Z,100.00
2022-07-29T22:31:20.749Z,100.00
2022-07-29T22:33:51.790Z,100.00
2022-07-29T22:36:20.829Z,100.00
2022-07-29T22:38:52.237Z,100.00
2022-07-29T22:41:21.349Z,100.00
2022-07-29T22:43:52.845Z,100.00
2022-07-29T22:46:24.109Z,100.00
2022-07-29T22:48:53.345Z,100.00
2022-07-29T22:51:24.270Z,100.00
2022-07-29T22:53:54.008Z,100.00
2022-07-29T22:56:23.125Z,100.00
2022-07-29T22:58:53.301Z,100.00
2022-07-29T23:01:37.513Z,100.00
2022-07-29T23:04:10.415Z,100.00
2022-07-29T23:06:39.343Z,100.00
2022-07-29T23:09:08.233Z,100.00
2022-07-29T23:11:37.267Z,100.00
2022-07-29T23:14:06.626Z,100.00
2022-07-29T23:16:39.925Z,100.00
2022-07-29T23:19:09.041Z,100.00
2022-07-29T23:21:40.910Z,100.00
2022-07-29T23:24:12.626Z,100.00
2022-07-29T23:26:44.110Z,100.00
2022-07-29T23:29:13.453Z,100.00
2022-07-29T23:31:48.320Z,100.00
2022-07-29T23:34:17.509Z,100.00
2022-07-29T23:36:46.425Z,100.00
2022-07-29T23:39:15.561Z,100.00
2022-07-29T23:41:44.581Z,100.00
2022-07-29T23:44:13.454Z,100.00
2022-07-29T23:46:44.505Z,100.00
2022-07-29T23:49:14.087Z,100.00
2022-07-29T23:51:45.684Z,100.00
2022-07-29T23:54:14.906Z,100.00
2022-07-29T23:56:44.212Z,100.00
2022-07-29T23:59:15.619Z,100.00
